AAL1298 KOKC-KDEN
Flight info
| Callsign | AAL1298 |
|---|---|
| Flight time | N/A |
| Altitude | 36000 |
| Route | STPHN3 ZEEWE KK36A HALEN NIIXX3 |
| Aircraft | A320/M-SDE3FGHIRWY/LB1 |
Departure
| Time | 2026-05-05 23:40 |
|---|---|
| Airport | OKC Will Rogers World Airport (KOKC) |
Arrival
| Time | N/A |
|---|---|
| Airport | Denver International Airport (KDEN) |
| Time | Latitude | Longitude | Altitude | Speed | Heading |
|---|---|---|---|---|---|
| 2026-05-05 23:07 | 35.39482 | -97.59849 | 1297 ft | 0 kts | 360° |
| 2026-05-05 23:30 | 35.39481 | -97.59849 | 1297 ft | 1 kts | 360° |
| 2026-05-05 23:30 | 35.39457 | -97.59847 | 1297 ft | 4 kts | 346° |
| 2026-05-05 23:30 | 35.39433 | -97.59835 | 1297 ft | 4 kts | 321° |
| 2026-05-05 23:30 | 35.39417 | -97.59811 | 1297 ft | 3 kts | 275° |
| 2026-05-05 23:31 | 35.39417 | -97.59806 | 1297 ft | 0 kts | 270° |
| 2026-05-05 23:33 | 35.39413 | -97.59817 | 1297 ft | 4 kts | 241° |
| 2026-05-05 23:33 | 35.39353 | -97.59826 | 1295 ft | 12 kts | 178° |
| 2026-05-05 23:33 | 35.39266 | -97.59837 | 1293 ft | 12 kts | 200° |
| 2026-05-05 23:34 | 35.39219 | -97.59915 | 1292 ft | 14 kts | 266° |
| 2026-05-05 23:34 | 35.39216 | -97.60034 | 1291 ft | 14 kts | 269° |
| 2026-05-05 23:34 | 35.39215 | -97.60136 | 1293 ft | 10 kts | 269° |
| 2026-05-05 23:34 | 35.39215 | -97.60212 | 1294 ft | 8 kts | 269° |
| 2026-05-05 23:35 | 35.39214 | -97.60314 | 1295 ft | 13 kts | 267° |
| 2026-05-05 23:35 | 35.39156 | -97.60366 | 1296 ft | 10 kts | 181° |
| 2026-05-05 23:35 | 35.39067 | -97.60359 | 1296 ft | 18 kts | 177° |
| 2026-05-05 23:35 | 35.38949 | -97.60352 | 1296 ft | 14 kts | 177° |
| 2026-05-05 23:36 | 35.38844 | -97.60344 | 1296 ft | 15 kts | 176° |
| 2026-05-05 23:36 | 35.38737 | -97.60337 | 1296 ft | 19 kts | 176° |
| 2026-05-05 23:36 | 35.38601 | -97.60334 | 1292 ft | 20 kts | 180° |
| 2026-05-05 23:36 | 35.38481 | -97.60334 | 1290 ft | 15 kts | 180° |
| 2026-05-05 23:37 | 35.38379 | -97.60333 | 1290 ft | 14 kts | 179° |
| 2026-05-05 23:37 | 35.38261 | -97.60333 | 1287 ft | 18 kts | 180° |
| 2026-05-05 23:37 | 35.38137 | -97.60334 | 1287 ft | 17 kts | 178° |
| 2026-05-05 23:37 | 35.38026 | -97.60333 | 1288 ft | 14 kts | 180° |
| 2026-05-05 23:38 | 35.37943 | -97.60350 | 1289 ft | 10 kts | 211° |
| 2026-05-05 23:38 | 35.37917 | -97.60415 | 1290 ft | 8 kts | 268° |
| 2026-05-05 23:38 | 35.37919 | -97.60478 | 1290 ft | 7 kts | 270° |
| 2026-05-05 23:38 | 35.37919 | -97.60533 | 1290 ft | 7 kts | 274° |
| 2026-05-05 23:39 | 35.37977 | -97.60573 | 1290 ft | 13 kts | 1° |
| 2026-05-05 23:39 | 35.38058 | -97.60571 | 1290 ft | 13 kts | 0° |
| 2026-05-05 23:39 | 35.38339 | -97.60571 | 1289 ft | 75 kts | 360° |
| 2026-05-05 23:39 | 35.39064 | -97.60572 | 1296 ft | 131 kts | 0° |
| 2026-05-05 23:40 | 35.40067 | -97.60574 | 1704 ft | 143 kts | 3° |
| 2026-05-05 23:40 | 35.41052 | -97.60545 | 2438 ft | 142 kts | 3° |
| 2026-05-05 23:40 | 35.41999 | -97.60912 | 3086 ft | 155 kts | 328° |
| 2026-05-05 23:40 | 35.42824 | -97.61951 | 3388 ft | 184 kts | 316° |
| 2026-05-05 23:41 | 35.43546 | -97.63377 | 3710 ft | 215 kts | 291° |
| 2026-05-05 23:41 | 35.43678 | -97.65328 | 4101 ft | 244 kts | 274° |
| 2026-05-05 23:41 | 35.43782 | -97.67493 | 4619 ft | 263 kts | 275° |
| 2026-05-05 23:41 | 35.43971 | -97.69752 | 5189 ft | 267 kts | 276° |
| 2026-05-05 23:42 | 35.44180 | -97.71981 | 6349 ft | 260 kts | 275° |
| 2026-05-05 23:42 | 35.44382 | -97.74176 | 7334 ft | 259 kts | 275° |
| 2026-05-05 23:42 | 35.44570 | -97.76370 | 8313 ft | 257 kts | 274° |
| 2026-05-05 23:42 | 35.44747 | -97.78542 | 9322 ft | 254 kts | 274° |
| 2026-05-05 23:43 | 35.44915 | -97.80689 | 10256 ft | 255 kts | 273° |
| 2026-05-05 23:43 | 35.45088 | -97.82951 | 10558 ft | 278 kts | 273° |
| 2026-05-05 23:43 | 35.45271 | -97.85391 | 10938 ft | 294 kts | 273° |
| 2026-05-05 23:43 | 35.45463 | -97.87919 | 11613 ft | 300 kts | 273° |
| 2026-05-05 23:44 | 35.45657 | -97.90483 | 12358 ft | 304 kts | 273° |
| 2026-05-05 23:44 | 35.45852 | -97.93077 | 13095 ft | 307 kts | 272° |
| 2026-05-05 23:44 | 35.46047 | -97.95669 | 13805 ft | 311 kts | 272° |
| 2026-05-05 23:44 | 35.46249 | -97.98360 | 14471 ft | 314 kts | 272° |
| 2026-05-05 23:45 | 35.46449 | -98.01035 | 15176 ft | 315 kts | 272° |
| 2026-05-05 23:45 | 35.46648 | -98.03685 | 15864 ft | 317 kts | 272° |
| 2026-05-05 23:45 | 35.46849 | -98.06377 | 16570 ft | 318 kts | 272° |
| 2026-05-05 23:45 | 35.47050 | -98.09089 | 17271 ft | 319 kts | 272° |
| 2026-05-05 23:46 | 35.47248 | -98.11809 | 17966 ft | 321 kts | 271° |
| 2026-05-05 23:46 | 35.47451 | -98.14536 | 18595 ft | 322 kts | 272° |
| 2026-05-05 23:46 | 35.47534 | -98.15558 | 18822 ft | 323 kts | 272° |